createdAt,value
2022-09-25T00:01:30.055Z,99.90
2022-09-25T00:03:59.771Z,99.90
2022-09-25T00:06:29.318Z,99.90
2022-09-25T00:09:00.538Z,99.90
2022-09-25T00:11:31.090Z,99.90
2022-09-25T00:14:00.729Z,99.90
2022-09-25T00:16:31.723Z,99.90
2022-09-25T00:19:19.372Z,99.90
2022-09-25T00:21:53.075Z,99.90
2022-09-25T00:24:22.239Z,99.90
2022-09-25T00:26:50.530Z,99.90
2022-09-25T00:29:21.492Z,99.90
2022-09-25T00:31:49.761Z,99.90
2022-09-25T00:34:19.266Z,99.90
2022-09-25T00:36:47.582Z,99.90
2022-09-25T00:39:15.841Z,99.90
2022-09-25T00:41:44.155Z,99.90
2022-09-25T00:44:56.415Z,99.90
2022-09-25T00:47:42.971Z,99.90
2022-09-25T00:50:23.499Z,99.90
2022-09-25T00:52:53.724Z,99.90
2022-09-25T00:55:23.721Z,99.90
2022-09-25T00:57:55.345Z,99.90
2022-09-25T01:00:23.786Z,99.90
2022-09-25T01:02:54.210Z,99.90
2022-09-25T01:05:29.121Z,99.90
2022-09-25T01:08:00.620Z,99.90
2022-09-25T01:10:29.013Z,99.90
2022-09-25T01:12:58.988Z,99.90
2022-09-25T01:15:33.333Z,99.90
2022-09-25T01:18:14.168Z,99.90
2022-09-25T01:21:01.320Z,99.90
2022-09-25T01:23:45.712Z,99.90
2022-09-25T01:26:32.336Z,99.90
2022-09-25T01:29:10.381Z,99.90
2022-09-25T01:31:46.368Z,99.90
2022-09-25T01:34:19.033Z,99.90
2022-09-25T01:36:51.535Z,99.90
2022-09-25T01:39:23.666Z,99.90
2022-09-25T01:41:57.215Z,99.90
2022-09-25T01:44:31.428Z,99.90
2022-09-25T01:47:07.398Z,99.90
2022-09-25T01:49:39.712Z,99.90
2022-09-25T01:52:13.744Z,99.90
2022-09-25T01:54:45.432Z,99.90
2022-09-25T01:57:20.851Z,99.90
2022-09-25T01:59:55.335Z,99.90
2022-09-25T02:02:28.062Z,99.90
2022-09-25T02:04:59.649Z,99.90
2022-09-25T02:07:36.473Z,99.90
2022-09-25T02:10:09.288Z,99.90
2022-09-25T02:12:43.380Z,99.90
2022-09-25T02:15:17.501Z,99.90
2022-09-25T02:18:07.149Z,99.90
2022-09-25T02:20:41.881Z,99.90
2022-09-25T02:23:18.722Z,99.90
2022-09-25T02:25:50.677Z,99.90
2022-09-25T02:28:19.328Z,99.90
2022-09-25T02:30:50.864Z,99.90
2022-09-25T02:33:19.256Z,99.90
2022-09-25T02:35:47.598Z,99.90
2022-09-25T02:38:16.951Z,99.90
2022-09-25T02:40:51.135Z,99.90
2022-09-25T02:43:35.714Z,99.90
2022-09-25T02:46:14.809Z,99.90
2022-09-25T02:48:54.403Z,99.90
2022-09-25T02:51:30.017Z,99.90
2022-09-25T02:54:07.979Z,99.90
2022-09-25T02:56:41.575Z,99.90
2022-09-25T02:59:15.726Z,99.90
2022-09-25T03:01:46.975Z,99.90
2022-09-25T03:04:17.981Z,99.90
2022-09-25T03:06:47.191Z,99.90
2022-09-25T03:09:17.498Z,99.90
2022-09-25T03:11:45.915Z,99.90
2022-09-25T03:14:14.396Z,99.90
2022-09-25T03:16:48.042Z,99.90
2022-09-25T03:19:17.749Z,99.90
2022-09-25T03:21:45.984Z,99.90
2022-09-25T03:24:14.653Z,99.90
2022-09-25T03:26:43.013Z,99.90
2022-09-25T03:29:13.128Z,99.90
2022-09-25T03:31:42.674Z,99.90
2022-09-25T03:34:13.778Z,99.90
2022-09-25T03:36:42.643Z,99.90
2022-09-25T03:39:10.995Z,99.90
2022-09-25T03:41:39.193Z,99.90
2022-09-25T03:44:07.384Z,99.90
2022-09-25T03:46:37.128Z,99.90
2022-09-25T03:49:05.857Z,99.90
2022-09-25T03:51:35.429Z,99.90
2022-09-25T03:54:04.451Z,99.90
2022-09-25T03:56:32.756Z,99.90
2022-09-25T03:59:01.214Z,99.90
2022-09-25T04:01:29.746Z,99.90
2022-09-25T04:03:58.064Z,99.90
2022-09-25T04:06:27.668Z,99.90
2022-09-25T04:08:57.252Z,99.90
2022-09-25T04:11:25.926Z,99.90
2022-09-25T04:13:54.166Z,99.90
2022-09-25T04:16:23.079Z,99.90
2022-09-25T04:18:51.486Z,99.90
2022-09-25T04:21:19.751Z,99.90
2022-09-25T04:24:08.573Z,99.90
2022-09-25T04:26:38.137Z,99.90
2022-09-25T04:29:06.953Z,99.90
2022-09-25T04:31:35.316Z,99.90
2022-09-25T04:34:03.060Z,99.90
2022-09-25T04:36:31.280Z,99.90
2022-09-25T04:38:59.704Z,99.90
2022-09-25T04:41:27.944Z,99.90
2022-09-25T04:43:57.467Z,99.90
2022-09-25T04:46:25.730Z,99.90
2022-09-25T04:48:54.016Z,99.90
2022-09-25T04:51:22.209Z,99.90
2022-09-25T04:53:50.476Z,99.90
2022-09-25T04:56:18.780Z,99.90
2022-09-25T04:58:48.411Z,99.90
2022-09-25T05:01:19.820Z,99.90
2022-09-25T05:03:50.047Z,99.90
2022-09-25T05:06:18.691Z,99.90
2022-09-25T05:08:49.607Z,99.90
2022-09-25T05:11:17.967Z,99.90
2022-09-25T05:13:46.498Z,99.90
2022-09-25T05:16:14.813Z,99.90
2022-09-25T05:18:44.405Z,99.90
2022-09-25T05:21:12.681Z,99.90
2022-09-25T05:23:40.864Z,99.90
2022-09-25T05:26:11.036Z,99.90
2022-09-25T05:28:39.337Z,99.90
2022-09-25T05:31:08.116Z,99.90
2022-09-25T05:33:36.951Z,99.90
2022-09-25T05:36:08.456Z,99.90
2022-09-25T05:38:38.636Z,99.90
2022-09-25T05:41:08.454Z,99.90
2022-09-25T05:43:41.184Z,99.90
2022-09-25T05:46:09.694Z,99.90
2022-09-25T05:48:38.231Z,99.90
2022-09-25T05:51:07.954Z,99.90
2022-09-25T05:53:36.675Z,99.90
2022-09-25T05:56:06.216Z,99.90
2022-09-25T05:58:36.057Z,99.90
2022-09-25T06:01:06.185Z,99.90
2022-09-25T06:03:34.583Z,99.90
2022-09-25T06:06:03.236Z,99.90
2022-09-25T06:08:34.940Z,99.90
2022-09-25T06:11:03.461Z,99.90
2022-09-25T06:13:34.838Z,99.90
2022-09-25T06:16:03.886Z,99.90
2022-09-25T06:18:33.319Z,99.90
2022-09-25T06:21:03.696Z,99.90
2022-09-25T06:23:33.382Z,99.90
2022-09-25T06:26:02.897Z,99.90
2022-09-25T06:28:31.159Z,99.90
2022-09-25T06:31:01.487Z,99.90
2022-09-25T06:33:30.073Z,99.90
2022-09-25T06:35:58.268Z,99.90
2022-09-25T06:38:26.532Z,99.90
2022-09-25T06:40:59.807Z,99.90
2022-09-25T06:43:29.800Z,99.90
2022-09-25T06:46:03.372Z,99.90
2022-09-25T06:48:31.948Z,99.90
2022-09-25T06:51:01.875Z,99.90
2022-09-25T06:53:30.660Z,99.90
2022-09-25T06:56:00.893Z,99.90
2022-09-25T06:58:30.521Z,99.90
2022-09-25T07:00:59.221Z,99.90
2022-09-25T07:03:44.799Z,99.90
2022-09-25T07:06:15.468Z,99.90
2022-09-25T07:08:44.992Z,99.90
2022-09-25T07:11:17.015Z,99.90
2022-09-25T07:13:45.390Z,99.90
2022-09-25T07:16:15.832Z,99.90
2022-09-25T07:18:44.846Z,99.90
2022-09-25T07:21:15.297Z,99.90
2022-09-25T07:23:43.981Z,99.90
2022-09-25T07:26:16.475Z,99.90
2022-09-25T07:28:45.225Z,99.90
2022-09-25T07:31:18.048Z,99.90
2022-09-25T07:33:47.123Z,99.90
2022-09-25T07:36:16.427Z,99.90
2022-09-25T07:38:46.157Z,99.90
2022-09-25T07:41:15.908Z,99.90
2022-09-25T07:43:44.379Z,99.90
2022-09-25T07:46:13.582Z,99.90
2022-09-25T07:48:42.015Z,99.90
2022-09-25T07:51:12.570Z,99.90
2022-09-25T07:53:42.729Z,99.90
2022-09-25T07:56:11.952Z,99.90
2022-09-25T07:58:42.649Z,99.90
2022-09-25T08:01:14.331Z,99.90
2022-09-25T08:03:42.595Z,99.90
2022-09-25T08:06:13.248Z,99.90
2022-09-25T08:08:42.435Z,99.90
2022-09-25T08:11:12.526Z,99.90
2022-09-25T08:13:42.815Z,99.90
2022-09-25T08:16:12.681Z,99.90
2022-09-25T08:18:41.813Z,99.90
2022-09-25T08:21:14.183Z,99.90
2022-09-25T08:23:47.441Z,99.90
2022-09-25T08:26:16.832Z,99.90
2022-09-25T08:28:46.547Z,99.90
2022-09-25T08:31:15.470Z,99.90
2022-09-25T08:33:46.112Z,99.90
2022-09-25T08:36:14.401Z,99.90
2022-09-25T08:38:42.774Z,99.90
2022-09-25T08:41:16.271Z,99.90
2022-09-25T08:43:53.512Z,99.90
2022-09-25T08:46:42.565Z,99.90
2022-09-25T08:49:14.209Z,99.90
2022-09-25T08:51:45.672Z,99.90
2022-09-25T08:54:20.164Z,99.90
2022-09-25T08:56:51.616Z,99.90
2022-09-25T08:59:28.577Z,99.90
2022-09-25T09:02:00.501Z,99.90
2022-09-25T09:04:32.344Z,99.90
2022-09-25T09:07:25.940Z,99.90
2022-09-25T09:10:01.561Z,99.90
2022-09-25T09:12:37.410Z,99.90
2022-09-25T09:15:21.321Z,99.90
2022-09-25T09:17:50.505Z,99.90
2022-09-25T09:20:22.989Z,99.90
2022-09-25T09:22:53.204Z,99.90
2022-09-25T09:25:28.927Z,99.90
2022-09-25T09:28:13.911Z,99.90
2022-09-25T09:30:54.570Z,99.90
2022-09-25T09:33:35.954Z,99.90
2022-09-25T09:36:29.973Z,99.90
2022-09-25T09:39:06.280Z,99.90
2022-09-25T09:41:54.502Z,99.90
2022-09-25T09:44:39.218Z,99.90
2022-09-25T09:47:22.608Z,99.90
2022-09-25T09:49:54.529Z,99.90
2022-09-25T09:52:26.789Z,99.90
2022-09-25T09:55:00.693Z,99.90
2022-09-25T09:57:31.369Z,99.90
2022-09-25T10:00:05.279Z,99.90
2022-09-25T10:02:49.617Z,99.90
2022-09-25T10:05:24.685Z,99.10
2022-09-25T10:07:53.438Z,97.70
2022-09-25T10:10:23.400Z,99.20
2022-09-25T10:12:54.147Z,99.10
2022-09-25T10:15:30.279Z,98.80
2022-09-25T10:18:02.774Z,98.80
2022-09-25T10:20:38.112Z,98.70
2022-09-25T10:23:15.273Z,98.20
2022-09-25T10:25:43.585Z,98.50
2022-09-25T10:28:27.972Z,99.30
2022-09-25T10:30:59.127Z,98.80
2022-09-25T10:33:31.169Z,96.90
2022-09-25T10:35:59.870Z,96.40
2022-09-25T10:38:38.860Z,94.80
2022-09-25T10:41:12.080Z,95.50
2022-09-25T10:43:56.178Z,95.10
2022-09-25T10:46:43.948Z,95.30
2022-09-25T10:49:35.840Z,95.90
2022-09-25T10:52:06.344Z,95.60
2022-09-25T10:54:38.991Z,97.00
2022-09-25T10:57:18.687Z,96.50
2022-09-25T10:59:52.203Z,96.20
2022-09-25T11:02:33.942Z,96.70
2022-09-25T11:05:05.194Z,95.00
2022-09-25T11:07:34.941Z,93.70
2022-09-25T11:10:03.289Z,93.70
2022-09-25T11:12:32.523Z,93.70
2022-09-25T11:15:03.108Z,93.30
2022-09-25T11:17:34.730Z,92.70
2022-09-25T11:20:30.532Z,92.90
2022-09-25T11:23:21.516Z,93.50
2022-09-25T11:25:54.732Z,93.90
2022-09-25T11:28:31.521Z,94.10
2022-09-25T11:31:04.529Z,93.00
2022-09-25T11:33:42.871Z,93.60
2022-09-25T11:36:18.411Z,92.80
2022-09-25T11:39:06.859Z,93.00
2022-09-25T11:41:40.955Z,93.10
2022-09-25T11:44:23.554Z,94.70
2022-09-25T11:46:59.176Z,94.60
2022-09-25T11:49:31.191Z,93.30
2022-09-25T11:52:40.070Z,94.30
2022-09-25T11:55:36.550Z,93.20
2022-09-25T11:58:26.393Z,92.30
2022-09-25T12:01:02.990Z,92.50
2022-09-25T12:03:58.553Z,92.60
2022-09-25T12:06:55.121Z,92.80
2022-09-25T12:09:52.750Z,93.20
2022-09-25T12:12:26.361Z,93.00
2022-09-25T12:15:04.252Z,93.60
2022-09-25T12:17:43.261Z,94.30
2022-09-25T12:20:19.831Z,93.40
2022-09-25T12:22:56.080Z,93.80
2022-09-25T12:25:42.134Z,93.00
2022-09-25T12:28:19.308Z,93.40
2022-09-25T12:30:56.050Z,93.70
2022-09-25T12:33:32.967Z,92.10
2022-09-25T12:36:08.976Z,92.60
2022-09-25T12:38:44.989Z,90.90
2022-09-25T12:41:21.085Z,90.90
2022-09-25T12:43:54.038Z,91.40
2022-09-25T12:46:29.836Z,90.10
2022-09-25T12:49:03.280Z,88.90
2022-09-25T12:51:38.002Z,88.10
2022-09-25T12:54:14.367Z,89.60
2022-09-25T12:56:49.468Z,87.30
2022-09-25T12:59:22.700Z,85.70
2022-09-25T13:01:58.199Z,86.00
2022-09-25T13:04:53.558Z,85.80
2022-09-25T13:07:28.379Z,86.30
2022-09-25T13:09:56.706Z,86.50
2022-09-25T13:12:34.160Z,83.70
2022-09-25T13:15:06.815Z,87.00
2022-09-25T13:17:35.871Z,88.10
2022-09-25T13:20:42.372Z,89.60
2022-09-25T13:23:14.460Z,90.20
2022-09-25T13:25:46.412Z,90.80
2022-09-25T13:28:22.816Z,91.10
2022-09-25T13:31:09.987Z,91.60
2022-09-25T13:33:45.086Z,91.20
2022-09-25T13:36:36.961Z,91.80
2022-09-25T13:39:25.705Z,90.80
2022-09-25T13:41:57.794Z,90.30
2022-09-25T13:44:58.067Z,90.50
2022-09-25T13:47:54.759Z,89.90
2022-09-25T13:50:32.448Z,89.00
2022-09-25T13:53:21.998Z,89.10
2022-09-25T13:56:14.886Z,90.10
2022-09-25T13:59:04.963Z,88.10
2022-09-25T14:01:37.718Z,87.70
2022-09-25T14:04:11.102Z,88.00
2022-09-25T14:06:42.028Z,89.30
2022-09-25T14:09:16.023Z,90.40
2022-09-25T14:11:51.752Z,90.70
2022-09-25T14:14:27.854Z,90.60
2022-09-25T14:16:59.556Z,90.20
2022-09-25T14:19:31.451Z,89.60
2022-09-25T14:22:02.914Z,88.70
2022-09-25T14:24:32.023Z,90.00
2022-09-25T14:27:02.179Z,88.30
2022-09-25T14:29:42.286Z,89.70
2022-09-25T14:32:53.570Z,90.10
2022-09-25T14:35:41.550Z,87.80
2022-09-25T14:38:23.355Z,89.90
2022-09-25T14:41:05.401Z,89.40
2022-09-25T14:43:52.023Z,88.50
2022-09-25T14:46:22.355Z,89.80
2022-09-25T14:48:55.292Z,89.20
2022-09-25T14:51:26.797Z,89.60
2022-09-25T14:53:58.432Z,87.70
2022-09-25T14:56:28.826Z,88.20
2022-09-25T14:59:00.061Z,87.30
2022-09-25T15:01:30.370Z,87.40
2022-09-25T15:04:02.677Z,87.30
2022-09-25T15:06:32.877Z,88.70
2022-09-25T15:09:03.069Z,89.60
2022-09-25T15:11:41.218Z,90.50
2022-09-25T15:14:16.268Z,90.50
2022-09-25T15:17:02.565Z,90.70
2022-09-25T15:19:34.830Z,91.00
2022-09-25T15:22:08.761Z,91.00
2022-09-25T15:24:38.482Z,91.40
2022-09-25T15:27:08.941Z,92.10
2022-09-25T15:29:38.777Z,92.70
2022-09-25T15:32:07.320Z,92.10
2022-09-25T15:34:37.412Z,91.90
2022-09-25T15:37:20.934Z,90.80
2022-09-25T15:39:49.272Z,91.30
2022-09-25T15:42:17.578Z,91.10
2022-09-25T15:44:46.464Z,91.50
2022-09-25T15:47:52.446Z,91.60
2022-09-25T15:50:25.285Z,91.10
2022-09-25T15:52:56.339Z,90.70
2022-09-25T15:55:25.538Z,90.70
2022-09-25T15:57:56.891Z,91.20
2022-09-25T16:00:44.802Z,91.60
2022-09-25T16:03:36.219Z,91.60
2022-09-25T16:06:06.381Z,91.90
2022-09-25T16:08:36.666Z,92.30
2022-09-25T16:11:17.634Z,91.70
2022-09-25T16:13:49.178Z,91.90
2022-09-25T16:16:23.962Z,91.10
2022-09-25T16:18:54.575Z,91.90
2022-09-25T16:21:31.701Z,90.90
2022-09-25T16:24:01.885Z,91.60
2022-09-25T16:26:37.392Z,91.30
2022-09-25T16:29:20.276Z,91.10
2022-09-25T16:31:53.552Z,91.00
2022-09-25T16:34:27.373Z,91.10
2022-09-25T16:36:59.043Z,91.60
2022-09-25T16:39:32.574Z,92.10
2022-09-25T16:42:01.294Z,92.30
2022-09-25T16:44:45.028Z,92.80
2022-09-25T16:47:19.882Z,93.40
2022-09-25T16:49:48.846Z,93.80
2022-09-25T16:52:21.711Z,94.00
2022-09-25T16:54:54.965Z,94.40
2022-09-25T16:57:24.693Z,94.70
2022-09-25T16:59:53.610Z,95.50
2022-09-25T17:02:37.052Z,95.70
2022-09-25T17:05:08.101Z,95.90
2022-09-25T17:07:37.684Z,95.80
2022-09-25T17:10:06.632Z,96.00
2022-09-25T17:12:35.187Z,96.00
2022-09-25T17:15:03.545Z,95.90
2022-09-25T17:17:32.481Z,95.70
2022-09-25T17:20:00.734Z,95.80
2022-09-25T17:22:31.049Z,96.10
2022-09-25T17:25:03.636Z,96.30
2022-09-25T17:27:31.819Z,96.40
2022-09-25T17:29:59.952Z,96.50
2022-09-25T17:32:29.332Z,96.70
2022-09-25T17:34:58.560Z,96.80
2022-09-25T17:37:26.831Z,97.00
2022-09-25T17:39:55.028Z,97.10
2022-09-25T17:42:26.370Z,97.30
2022-09-25T17:44:54.976Z,97.20
2022-09-25T17:47:23.112Z,97.50
2022-09-25T17:49:51.346Z,97.90
2022-09-25T17:52:21.981Z,98.40
2022-09-25T17:54:50.243Z,98.70
2022-09-25T17:57:18.460Z,99.00
2022-09-25T17:59:48.447Z,99.10
2022-09-25T18:02:18.122Z,99.20
2022-09-25T18:04:46.418Z,99.30
2022-09-25T18:07:15.273Z,99.30
2022-09-25T18:09:43.705Z,99.10
2022-09-25T18:12:11.873Z,99.40
2022-09-25T18:14:40.061Z,99.40
2022-09-25T18:17:09.653Z,99.20
2022-09-25T18:19:55.305Z,99.20
2022-09-25T18:22:25.558Z,99.30
2022-09-25T18:24:56.680Z,99.30
2022-09-25T18:27:27.359Z,99.40
2022-09-25T18:29:55.848Z,99.60
2022-09-25T18:32:25.545Z,99.60
2022-09-25T18:34:54.490Z,99.70
2022-09-25T18:37:22.651Z,99.90
2022-09-25T18:39:50.864Z,99.70
2022-09-25T18:42:19.206Z,99.70
2022-09-25T18:44:47.424Z,99.70
2022-09-25T18:47:15.694Z,99.70
2022-09-25T18:49:45.347Z,99.70
2022-09-25T18:52:13.528Z,99.70
2022-09-25T18:54:42.236Z,99.80
2022-09-25T18:57:11.018Z,99.90
2022-09-25T18:59:39.636Z,99.90
2022-09-25T19:02:14.984Z,99.90
2022-09-25T19:04:43.315Z,99.90
2022-09-25T19:07:12.907Z,99.90
2022-09-25T19:09:41.204Z,99.90
2022-09-25T19:12:12.419Z,99.90
2022-09-25T19:14:41.339Z,99.90
2022-09-25T19:17:09.978Z,99.90
2022-09-25T19:19:40.920Z,99.90
2022-09-25T19:22:15.328Z,99.90
2022-09-25T19:24:43.807Z,99.90
2022-09-25T19:27:12.236Z,99.90
2022-09-25T19:29:40.413Z,99.90
2022-09-25T19:32:10.681Z,99.90
2022-09-25T19:34:39.361Z,99.90
2022-09-25T19:37:07.894Z,99.90
2022-09-25T19:39:51.989Z,99.90
2022-09-25T19:42:20.534Z,99.90
2022-09-25T19:44:49.151Z,99.90
2022-09-25T19:47:17.594Z,99.90
2022-09-25T19:49:45.866Z,99.90
2022-09-25T19:52:14.113Z,99.90
2022-09-25T19:54:43.725Z,99.90
2022-09-25T19:57:12.441Z,99.90
2022-09-25T19:59:40.667Z,99.90
2022-09-25T20:02:10.332Z,99.90
2022-09-25T20:04:38.696Z,99.90
2022-09-25T20:07:06.943Z,99.90
2022-09-25T20:09:39.757Z,99.90
2022-09-25T20:12:09.893Z,99.90
2022-09-25T20:14:38.164Z,99.90
2022-09-25T20:17:10.004Z,99.90
2022-09-25T20:19:38.578Z,99.90
2022-09-25T20:22:06.844Z,99.90
2022-09-25T20:24:35.002Z,99.90
2022-09-25T20:27:03.228Z,99.90
2022-09-25T20:29:32.931Z,99.90
2022-09-25T20:32:01.219Z,99.90
2022-09-25T20:34:29.429Z,99.90
2022-09-25T20:36:57.554Z,99.90
2022-09-25T20:39:27.387Z,99.90
2022-09-25T20:41:56.039Z,99.90
2022-09-25T20:44:24.264Z,99.90
2022-09-25T20:46:53.842Z,99.90
2022-09-25T20:49:22.899Z,99.90
2022-09-25T20:51:51.042Z,99.90
2022-09-25T20:54:19.259Z,99.90
2022-09-25T20:56:47.630Z,99.90
2022-09-25T20:59:17.742Z,99.90
2022-09-25T21:01:46.516Z,99.90
2022-09-25T21:04:18.068Z,99.90
2022-09-25T21:06:46.439Z,99.90
2022-09-25T21:09:20.970Z,99.90
2022-09-25T21:11:49.627Z,99.90
2022-09-25T21:14:19.909Z,99.90
2022-09-25T21:16:49.208Z,99.90
2022-09-25T21:19:20.850Z,99.90
2022-09-25T21:21:49.442Z,99.90
2022-09-25T21:24:19.108Z,99.90
2022-09-25T21:26:47.813Z,99.90
2022-09-25T21:29:17.760Z,99.90
2022-09-25T21:31:49.800Z,99.90
2022-09-25T21:34:20.713Z,99.90
2022-09-25T21:36:49.659Z,99.90
2022-09-25T21:39:19.147Z,99.90
2022-09-25T21:41:49.463Z,99.90
2022-09-25T21:44:20.093Z,99.90
2022-09-25T21:46:48.377Z,99.90
2022-09-25T21:49:18.739Z,99.90
2022-09-25T21:51:50.975Z,99.90
2022-09-25T21:54:19.601Z,99.90
2022-09-25T21:56:49.075Z,99.90
2022-09-25T21:59:17.796Z,99.90
2022-09-25T22:01:46.243Z,99.90
2022-09-25T22:04:15.749Z,99.90
2022-09-25T22:06:47.025Z,99.90
2022-09-25T22:09:18.828Z,99.90
2022-09-25T22:11:47.845Z,99.90
2022-09-25T22:14:16.944Z,99.90
2022-09-25T22:16:47.323Z,99.90
2022-09-25T22:19:17.624Z,99.90
2022-09-25T22:21:47.548Z,99.90
2022-09-25T22:24:17.489Z,99.90
2022-09-25T22:26:47.622Z,99.90
2022-09-25T22:29:16.591Z,99.90
2022-09-25T22:31:45.101Z,99.90
2022-09-25T22:34:20.893Z,99.90
2022-09-25T22:36:53.596Z,99.90
2022-09-25T22:39:26.019Z,99.90
2022-09-25T22:41:55.387Z,99.90
2022-09-25T22:44:24.389Z,99.90
2022-09-25T22:46:52.760Z,99.90
2022-09-25T22:49:21.016Z,99.90
2022-09-25T22:51:49.353Z,99.90
2022-09-25T22:54:17.653Z,99.90
2022-09-25T22:56:47.171Z,99.90
2022-09-25T22:59:18.039Z,99.90
2022-09-25T23:01:50.307Z,99.90
2022-09-25T23:04:20.890Z,99.90
2022-09-25T23:06:49.654Z,99.90
2022-09-25T23:09:20.518Z,99.90
2022-09-25T23:11:50.006Z,99.90
2022-09-25T23:14:19.806Z,99.90
2022-09-25T23:16:49.810Z,99.90
2022-09-25T23:19:18.704Z,99.90
2022-09-25T23:21:47.238Z,99.90
2022-09-25T23:24:17.019Z,99.90
2022-09-25T23:26:46.496Z,99.90
2022-09-25T23:29:17.677Z,99.90
2022-09-25T23:31:47.290Z,99.90
2022-09-25T23:34:16.122Z,99.90
2022-09-25T23:36:44.837Z,99.90
2022-09-25T23:39:17.184Z,99.90
2022-09-25T23:41:45.565Z,99.90
2022-09-25T23:44:15.512Z,99.90
2022-09-25T23:46:44.294Z,99.90
2022-09-25T23:49:13.068Z,99.90
2022-09-25T23:51:41.344Z,99.90
2022-09-25T23:54:10.957Z,99.90
2022-09-25T23:56:40.317Z,99.90
2022-09-25T23:59:10.827Z,99.90
